Eastgate, Washington
Current Conditions -  °F | °C
As of 6:53 AM on Sunday 21 Dec 2014 (Local Time) from KRNT Reporting Station
Overcast Overcast  
Wind Chill: 52°   Ceiling: 1800
Heat Index: 52°   Visibility: 10mi
Dew Point: 48°   Wind: 8mph
Humidity: 86%   Direction: 170°S
Pressure: 29.79"   Gusts: 17mph
Location:  47.6127°N, 122.144°W
Report Text: KRNT 211453Z AUTO 17007G15KT 10SM OVC018 11/09 A2979 RMK AO2 SLP091 T01110089 51020 $
Loading
Personal Weather Stations






























Interactive Weather Map New forecast layout! Learn more

10-Day Weather Forecast

Advertisements
Track Severe Weather on mobile